Time;durP1;ratioP1;P1;durP2;ratioP2;P2;SDS_P1;SDS_P2;PMS_P1;PMS_P2;Temp;Humidity;BMP_temperature;BMP_pressure;BME280_temperature;BME280_humidity;BME280_pressure;Samples;Min_cycle;Max_cycle;Signal;HPM_P1;HPM_P2
2022/01/19 00:01:35;;;;;;;6.32;4.00;;;1.30;99.90;;;;;;5028764;28;20494;-77
2022/01/19 00:04:01;;;;;;;7.00;3.83;;;1.30;99.90;;;;;;5028627;28;20037;-77
2022/01/19 00:06:27;;;;;;;7.00;3.35;;;1.30;99.90;;;;;;5027823;28;20136;-77
2022/01/19 00:08:53;;;;;;;7.25;3.90;;;1.30;99.90;;;;;;5028470;28;20096;-76
2022/01/19 00:11:20;;;;;;;6.35;3.90;;;1.30;99.90;;;;;;5028246;28;20497;-77
2022/01/19 00:13:45;;;;;;;6.70;3.70;;;1.20;99.90;;;;;;5023705;28;20026;-77
2022/01/19 00:16:11;;;;;;;8.75;3.35;;;1.30;99.90;;;;;;5030396;28;20022;-76
2022/01/19 00:18:37;;;;;;;8.13;3.75;;;1.20;99.90;;;;;;5027606;28;20115;-77
2022/01/19 00:21:03;;;;;;;6.97;4.20;;;1.20;99.90;;;;;;5027997;28;20491;-77
2022/01/19 00:23:29;;;;;;;6.10;4.13;;;1.30;99.90;;;;;;5027814;28;20025;-76
2022/01/19 00:25:56;;;;;;;7.30;4.10;;;1.40;99.90;;;;;;5035100;28;20051;-76
2022/01/19 00:28:22;;;;;;;5.53;3.17;;;1.40;99.90;;;;;;5033515;28;20522;-76
2022/01/19 00:30:48;;;;;;;8.50;4.00;;;1.50;99.90;;;;;;5028594;28;20028;-77
2022/01/19 00:33:18;;;;;;;5.65;3.28;;;1.40;99.90;;;;;;5028477;28;20030;-76
2022/01/19 00:35:44;;;;;;;7.93;3.58;;;1.40;99.90;;;;;;5026114;28;20514;-76
2022/01/19 00:38:10;;;;;;;6.53;3.75;;;1.30;99.90;;;;;;5027981;28;20071;-76
2022/01/19 00:40:38;;;;;;;5.55;3.25;;;1.30;99.90;;;;;;5028208;28;20410;-78
2022/01/19 00:43:04;;;;;;;5.03;3.03;;;1.30;99.90;;;;;;5028637;28;20029;-77
2022/01/19 00:45:30;;;;;;;5.45;3.00;;;1.50;99.90;;;;;;5026996;28;20049;-76
2022/01/19 00:47:56;;;;;;;5.63;3.20;;;1.40;99.90;;;;;;5034168;28;20557;-76
2022/01/19 00:50:25;;;;;;;6.22;3.80;;;1.30;99.90;;;;;;5027764;28;20029;-76
2022/01/19 00:52:52;;;;;;;4.25;2.95;;;1.30;99.90;;;;;;5026628;28;20014;-76
2022/01/19 00:55:20;;;;;;;6.15;3.63;;;1.40;99.90;;;;;;5033419;28;20490;-76
2022/01/19 00:57:46;;;;;;;4.57;2.75;;;1.40;99.90;;;;;;5031019;28;20025;-76
2022/01/19 01:00:16;;;;;;;6.50;3.00;;;1.50;99.90;;;;;;5031352;28;20032;-76
2022/01/19 01:02:42;;;;;;;5.78;3.35;;;1.50;99.90;;;;;;5022168;28;20031;-76
2022/01/19 01:05:08;;;;;;;5.28;3.35;;;1.50;99.90;;;;;;5031035;28;20390;-76
2022/01/19 01:07:38;;;;;;;5.80;3.85;;;1.60;99.90;;;;;;5036092;28;20021;-76
2022/01/19 01:10:07;;;;;;;5.07;3.05;;;1.50;99.90;;;;;;5031206;28;20109;-77
2022/01/19 01:18:19;;;;;;;6.55;3.08;;;1.40;99.90;;;;;;5024529;28;20152;-76
2022/01/19 01:20:50;;;;;;;9.60;3.58;;;1.40;99.90;;;;;;5021728;28;20080;-76
2022/01/19 01:23:17;;;;;;;5.80;3.22;;;1.40;99.90;;;;;;5011831;28;20086;-76
2022/01/19 01:25:43;;;;;;;6.28;3.25;;;1.40;99.90;;;;;;5025271;28;20042;-76
2022/01/19 01:28:09;;;;;;;3.63;2.22;;;1.40;99.90;;;;;;5028927;28;20026;-76
2022/01/19 01:30:36;;;;;;;4.05;3.00;;;1.50;99.90;;;;;;5013904;28;20038;-76
2022/01/19 01:33:02;;;;;;;5.22;3.13;;;1.60;99.90;;;;;;5018113;28;20082;-76
2022/01/19 01:35:28;;;;;;;6.57;2.95;;;1.60;99.90;;;;;;5023771;28;20034;-76
2022/01/19 01:37:53;;;;;;;5.72;3.17;;;1.70;99.90;;;;;;5008447;28;20026;-76
2022/01/19 01:40:19;;;;;;;5.88;3.47;;;1.70;99.90;;;;;;5014514;28;20175;-76
2022/01/19 01:42:45;;;;;;;5.82;2.97;;;1.70;99.90;;;;;;5003119;28;20526;-76
2022/01/19 01:45:14;;;;;;;4.45;3.13;;;1.70;99.90;;;;;;5024509;28;20049;-76
2022/01/19 01:47:45;;;;;;;5.97;2.97;;;1.70;99.90;;;;;;5008065;28;20029;-76
2022/01/19 01:55:24;;;;;;;6.85;3.40;;;1.60;99.90;;;;;;5027239;28;20571;-76
2022/01/19 01:57:51;;;;;;;4.65;2.80;;;1.50;99.90;;;;;;5031131;28;20045;-76
2022/01/19 02:00:25;;;;;;;6.65;3.25;;;1.40;99.90;;;;;;5030364;28;20121;-76
2022/01/19 02:02:51;;;;;;;5.35;2.90;;;1.50;99.90;;;;;;5023180;28;20048;-76
2022/01/19 02:05:18;;;;;;;6.32;3.70;;;1.50;99.90;;;;;;5036702;28;20025;-76
2022/01/19 02:08:02;;;;;;;6.15;3.28;;;1.40;99.90;;;;;;5034359;28;20029;-76
2022/01/19 02:10:56;;;;;;;7.10;3.55;;;1.50;99.90;;;;;;5030439;28;20017;-78
2022/01/19 02:21:58;;;;;;;6.45;3.50;;;1.50;99.90;;;;;;5030054;28;20530;-76
2022/01/19 02:24:28;;;;;;;6.05;3.05;;;1.50;99.90;;;;;;5028938;28;20056;-76
2022/01/19 02:40:29;;;;;;;7.72;3.85;;;1.50;99.90;;;;;;5046822;28;20568;-78
2022/01/19 02:43:07;;;;;;;7.25;3.97;;;1.60;99.90;;;;;;5047742;28;20029;-76
2022/01/19 02:51:06;;;;;;;8.77;3.95;;;1.70;99.90;;;;;;5049631;28;20552;-76
2022/01/19 02:53:35;;;;;;;5.47;3.33;;;1.70;99.90;;;;;;5027421;28;20041;-76
2022/01/19 02:56:07;;;;;;;8.65;3.95;;;1.60;99.90;;;;;;5057178;28;20036;-76
2022/01/19 02:58:38;;;;;;;9.63;4.38;;;1.70;99.90;;;;;;5046587;28;20033;-76
2022/01/19 03:08:58;;;;;;;6.85;3.80;;;1.70;99.90;;;;;;5046204;28;20572;-76
2022/01/19 03:11:24;;;;;;;8.15;3.83;;;1.80;99.90;;;;;;5040003;28;20517;-76
2022/01/19 03:13:50;;;;;;;8.18;4.20;;;1.80;99.90;;;;;;5020038;28;20112;-76
2022/01/19 03:16:20;;;;;;;9.80;5.15;;;1.80;99.90;;;;;;5030464;28;20148;-76
2022/01/19 03:18:47;;;;;;;9.48;4.55;;;1.80;99.90;;;;;;5027231;28;20497;-76
2022/01/19 03:21:14;;;;;;;8.00;4.45;;;1.90;99.90;;;;;;5026843;28;20029;-76
2022/01/19 03:23:40;;;;;;;8.60;4.90;;;1.90;99.90;;;;;;5033958;28;20159;-76
2022/01/19 03:26:06;;;;;;;9.52;4.43;;;1.90;99.90;;;;;;5033419;28;20119;-76
2022/01/19 03:28:33;;;;;;;8.95;4.63;;;1.90;99.90;;;;;;5031353;28;20025;-76
2022/01/19 03:30:59;;;;;;;6.93;3.78;;;1.90;99.90;;;;;;5029892;28;20022;-76
2022/01/19 03:33:25;;;;;;;9.10;4.47;;;2.00;99.90;;;;;;5028026;28;20413;-76
2022/01/19 03:35:51;;;;;;;7.50;4.38;;;2.00;99.90;;;;;;5028046;28;20072;-76
2022/01/19 03:38:17;;;;;;;8.73;4.50;;;2.00;99.90;;;;;;5027483;28;20432;-76
2022/01/19 03:40:43;;;;;;;9.60;4.88;;;2.00;99.90;;;;;;5027141;28;20038;-76
2022/01/19 03:43:09;;;;;;;9.55;5.15;;;1.90;99.90;;;;;;5033096;28;20029;-76
2022/01/19 03:45:36;;;;;;;11.43;4.97;;;2.00;99.90;;;;;;5029719;28;20049;-76
2022/01/19 03:48:24;;;;;;;10.15;4.80;;;2.00;99.90;;;;;;5031479;28;20025;-76
2022/01/19 03:50:50;;;;;;;9.30;5.05;;;2.00;99.90;;;;;;5026646;28;20049;-76
2022/01/19 03:53:16;;;;;;;10.52;4.88;;;2.00;99.90;;;;;;5028098;28;20450;-76
2022/01/19 03:55:42;;;;;;;8.20;5.18;;;2.10;99.90;;;;;;5028130;28;20025;-76
2022/01/19 03:58:07;;;;;;;8.55;4.95;;;2.10;99.90;;;;;;5029872;28;20048;-78
2022/01/19 04:00:36;;;;;;;10.23;4.97;;;2.10;99.90;;;;;;5026842;28;20429;-78
2022/01/19 04:03:05;;;;;;;10.70;5.55;;;2.10;99.90;;;;;;5034289;28;20509;-79
2022/01/19 04:05:55;;;;;;;12.85;6.95;;;2.10;99.90;;;;;;5033027;28;20067;-76
2022/01/19 04:08:21;;;;;;;9.38;5.25;;;2.10;99.90;;;;;;5029689;28;20149;-76
2022/01/19 04:10:47;;;;;;;11.73;6.43;;;2.00;99.90;;;;;;5026856;28;20076;-76
2022/01/19 04:15:54;;;;;;;9.60;5.20;;;2.00;99.90;;;;;;5029623;28;20510;-78
2022/01/19 04:18:20;;;;;;;10.75;5.53;;;2.10;99.90;;;;;;5028045;28;20057;-76
2022/01/19 04:20:51;;;;;;;10.38;5.80;;;2.10;99.90;;;;;;5026372;28;20407;-76
2022/01/19 04:23:19;;;;;;;8.25;4.78;;;2.00;99.90;;;;;;5032931;28;20045;-76
2022/01/19 04:25:45;;;;;;;9.93;5.93;;;2.10;99.90;;;;;;5030818;28;20037;-76
2022/01/19 04:28:11;;;;;;;11.10;5.60;;;2.10;99.90;;;;;;5030792;28;20030;-76
2022/01/19 04:30:38;;;;;;;11.70;5.85;;;2.00;99.90;;;;;;5031684;28;20029;-76
2022/01/19 04:33:11;;;;;;;10.57;5.50;;;2.00;99.90;;;;;;5031458;28;20044;-76
2022/01/19 04:35:50;;;;;;;9.88;5.32;;;2.10;99.90;;;;;;5020982;28;20048;-76
2022/01/19 04:44:38;;;;;;;9.88;5.32;;;1.80;99.90;;;;;;5031590;28;20501;-76
2022/01/19 05:05:28;;;;;;;6.60;3.92;;;1.90;99.90;;;;;;5024713;28;20422;-76
2022/01/19 05:08:00;;;;;;;8.70;4.75;;;2.00;99.90;;;;;;5023987;28;20045;-76
2022/01/19 05:15:52;;;;;;;8.73;4.40;;;2.10;99.90;;;;;;5015874;28;20577;-75
2022/01/19 05:18:18;;;;;;;9.13;4.35;;;2.00;99.90;;;;;;5020173;28;20045;-76
2022/01/19 05:20:45;;;;;;;10.57;5.03;;;2.00;99.90;;;;;;5018126;28;20021;-76
2022/01/19 05:23:11;;;;;;;9.15;4.55;;;2.10;99.90;;;;;;5011812;28;20120;-76
2022/01/19 05:25:37;;;;;;;10.18;5.28;;;2.00;99.90;;;;;;5010667;28;20113;-76
2022/01/19 05:28:04;;;;;;;7.93;4.68;;;1.90;99.90;;;;;;5025777;28;20051;-76
2022/01/19 05:30:29;;;;;;;7.63;4.18;;;2.00;99.90;;;;;;5015351;28;20032;-76
2022/01/19 05:32:55;;;;;;;13.15;4.80;;;2.00;99.90;;;;;;5023366;28;20025;-76
2022/01/19 05:35:21;;;;;;;9.32;5.50;;;1.90;99.90;;;;;;5039685;28;20018;-76
2022/01/19 05:37:47;;;;;;;8.07;4.82;;;1.90;99.90;;;;;;5030663;28;20061;-76
2022/01/19 05:40:14;;;;;;;8.40;5.13;;;1.90;99.90;;;;;;5034373;28;20075;-76
2022/01/19 05:42:40;;;;;;;8.43;4.82;;;1.90;99.90;;;;;;5031514;28;20034;-76
2022/01/19 05:45:07;;;;;;;8.75;5.15;;;1.90;99.90;;;;;;5031874;28;21431;-76
2022/01/19 05:47:32;;;;;;;7.85;5.10;;;1.90;99.90;;;;;;5030308;28;20033;-77
2022/01/19 05:49:58;;;;;;;11.40;5.22;;;1.90;99.90;;;;;;5030317;28;20025;-76
2022/01/19 05:52:24;;;;;;;7.47;4.90;;;1.90;99.90;;;;;;5030537;28;20060;-77
2022/01/19 05:54:50;;;;;;;9.30;4.75;;;2.00;99.90;;;;;;5029616;28;20018;-76
2022/01/19 05:57:15;;;;;;;8.35;5.25;;;2.00;99.90;;;;;;5028454;28;20546;-77
2022/01/19 05:59:42;;;;;;;9.95;5.45;;;2.10;99.90;;;;;;5034463;28;20034;-77
2022/01/19 06:02:07;;;;;;;8.35;4.55;;;1.90;99.90;;;;;;5032733;28;20036;-77
2022/01/19 06:04:33;;;;;;;10.70;5.40;;;1.90;99.90;;;;;;5045488;28;20029;-77
2022/01/19 06:07:01;;;;;;;10.15;5.80;;;1.90;99.90;;;;;;5030910;28;20025;-77
2022/01/19 06:11:58;;;;;;;;;;;1.90;99.90;;;;;;5030386;28;20021;-77
2022/01/19 06:14:24;;;;;;;10.77;5.05;;;1.90;99.90;;;;;;5022645;28;19916;-77
2022/01/19 06:16:51;;;;;;;9.65;4.82;;;1.90;99.90;;;;;;5028501;28;20486;-77
2022/01/19 06:19:19;;;;;;;10.45;5.53;;;1.90;99.90;;;;;;5034605;28;20542;-76
2022/01/19 06:21:45;;;;;;;11.63;6.25;;;1.90;99.90;;;;;;5030064;28;20033;-76
2022/01/19 06:24:11;;;;;;;11.60;6.00;;;1.90;99.90;;;;;;5032336;28;20033;-76
2022/01/19 06:26:38;;;;;;;12.20;5.10;;;1.90;99.90;;;;;;5028186;28;20065;-76
2022/01/19 06:29:04;;;;;;;10.70;6.05;;;2.00;99.90;;;;;;5029810;28;20017;-76
2022/01/19 06:31:30;;;;;;;13.82;6.43;;;2.00;99.90;;;;;;5029790;28;20040;-76
2022/01/19 06:33:56;;;;;;;11.88;6.15;;;2.00;99.90;;;;;;5030524;28;20029;-77
2022/01/19 06:36:22;;;;;;;9.98;5.63;;;2.00;99.90;;;;;;5029381;28;20103;-77
2022/01/19 06:38:47;;;;;;;10.20;6.03;;;2.00;99.90;;;;;;5029489;28;20076;-77
2022/01/19 06:41:13;;;;;;;12.40;6.40;;;2.10;99.90;;;;;;5033045;28;20034;-77
2022/01/19 06:43:39;;;;;;;11.88;6.30;;;2.00;99.90;;;;;;5030657;28;20106;-77
2022/01/19 06:46:05;;;;;;;8.75;5.28;;;2.00;99.90;;;;;;5030871;28;20482;-76
2022/01/19 06:48:31;;;;;;;10.95;6.07;;;2.00;99.90;;;;;;5028539;28;20029;-76
2022/01/19 06:50:57;;;;;;;13.98;6.88;;;2.00;99.90;;;;;;5028451;28;20493;-77
2022/01/19 06:53:23;;;;;;;10.90;6.20;;;2.00;99.90;;;;;;5033511;28;20017;-76
2022/01/19 06:55:49;;;;;;;13.63;6.53;;;2.00;99.90;;;;;;5028997;28;20025;-76
2022/01/19 06:58:14;;;;;;;11.75;6.28;;;2.00;99.90;;;;;;5031028;28;20025;-76
2022/01/19 07:00:40;;;;;;;13.07;6.38;;;2.00;99.90;;;;;;5033689;28;20487;-76
2022/01/19 07:03:06;;;;;;;12.13;6.28;;;2.10;99.90;;;;;;5028698;28;20029;-77
2022/01/19 07:05:32;;;;;;;13.52;6.68;;;2.10;99.90;;;;;;5028717;28;20494;-76
2022/01/19 07:07:57;;;;;;;11.02;5.68;;;2.10;99.90;;;;;;5028595;28;20033;-77
2022/01/19 07:10:24;;;;;;;11.63;6.45;;;2.10;99.90;;;;;;5030345;28;20036;-76
2022/01/19 07:12:51;;;;;;;12.13;6.55;;;2.10;99.90;;;;;;5027718;28;20487;-77
2022/01/19 07:15:16;;;;;;;12.48;6.22;;;2.10;99.90;;;;;;5024605;28;20039;-77
2022/01/19 07:17:42;;;;;;;10.18;5.80;;;2.20;99.90;;;;;;5036127;28;20112;-77
2022/01/19 07:20:09;;;;;;;12.25;6.18;;;2.20;99.90;;;;;;5028401;28;20104;-77
2022/01/19 07:22:35;;;;;;;12.90;6.32;;;2.20;99.90;;;;;;5029000;28;20030;-77
2022/01/19 07:25:01;;;;;;;12.43;6.80;;;2.20;99.90;;;;;;5028803;28;20031;-77
2022/01/19 07:27:27;;;;;;;11.93;7.00;;;2.10;99.90;;;;;;5027196;28;20111;-77
2022/01/19 07:29:53;;;;;;;11.00;6.45;;;2.10;99.90;;;;;;5028559;28;20025;-77
2022/01/19 07:32:20;;;;;;;11.10;6.45;;;2.10;99.90;;;;;;5028531;28;20148;-76
2022/01/19 07:34:45;;;;;;;13.32;6.63;;;2.20;99.90;;;;;;5028656;28;20468;-76
2022/01/19 07:37:14;;;;;;;10.50;5.95;;;2.20;99.90;;;;;;5032537;28;20049;-77
2022/01/19 07:39:39;;;;;;;10.23;6.07;;;2.20;99.90;;;;;;5027564;28;20067;-77
2022/01/19 07:42:05;;;;;;;10.48;6.32;;;2.20;99.90;;;;;;5031153;28;20064;-76
2022/01/19 07:44:32;;;;;;;12.77;6.45;;;2.30;99.90;;;;;;5026837;28;20108;-76
2022/01/19 07:46:58;;;;;;;11.52;7.05;;;2.30;99.90;;;;;;5028264;28;20072;-77
2022/01/19 07:49:23;;;;;;;9.13;5.82;;;2.40;99.90;;;;;;5027836;28;20129;-77
2022/01/19 07:51:49;;;;;;;11.95;6.68;;;2.40;99.90;;;;;;5028820;28;20093;-77
2022/01/19 07:54:15;;;;;;;11.13;5.80;;;2.40;99.90;;;;;;5032724;28;20037;-77
2022/01/19 07:56:41;;;;;;;10.18;6.20;;;2.40;99.90;;;;;;5028122;28;20167;-77
2022/01/19 07:59:06;;;;;;;11.63;6.10;;;2.50;99.90;;;;;;5031260;28;20037;-77
2022/01/19 08:01:32;;;;;;;15.50;6.93;;;2.30;99.90;;;;;;5029418;28;20021;-77
2022/01/19 08:03:58;;;;;;;13.07;6.72;;;2.30;99.90;;;;;;5033232;28;20037;-77
2022/01/19 08:06:25;;;;;;;14.55;7.25;;;2.40;99.90;;;;;;5031714;28;20071;-77
2022/01/19 08:08:50;;;;;;;11.80;6.65;;;2.40;99.90;;;;;;5032045;28;20085;-77
2022/01/19 08:11:16;;;;;;;12.43;6.90;;;2.40;99.90;;;;;;5037762;28;20021;-77
2022/01/19 08:13:42;;;;;;;12.88;6.25;;;2.40;99.90;;;;;;5032799;28;20520;-77
2022/01/19 08:16:07;;;;;;;12.38;6.53;;;2.40;99.90;;;;;;5030633;28;20539;-77
2022/01/19 08:18:33;;;;;;;12.90;6.43;;;2.40;99.90;;;;;;5031173;28;20087;-78
2022/01/19 08:20:59;;;;;;;12.63;6.90;;;2.30;99.90;;;;;;5032578;28;20025;-77
2022/01/19 08:23:25;;;;;;;11.82;6.88;;;2.30;99.90;;;;;;5031362;28;20039;-77
2022/01/19 08:25:52;;;;;;;13.68;6.45;;;2.30;99.90;;;;;;5031499;28;20552;-77
2022/01/19 08:28:18;;;;;;;12.27;7.47;;;2.30;99.90;;;;;;5032951;28;20036;-77
2022/01/19 08:30:44;;;;;;;12.18;6.35;;;2.40;99.90;;;;;;5031112;28;20030;-77
2022/01/19 08:33:10;;;;;;;12.88;6.70;;;2.40;99.90;;;;;;5031211;28;20026;-77
2022/01/19 08:35:37;;;;;;;15.35;7.38;;;2.40;99.90;;;;;;5031345;28;20524;-77
2022/01/19 08:38:03;;;;;;;10.88;6.45;;;2.40;99.90;;;;;;5035400;28;20037;-77
2022/01/19 08:40:30;;;;;;;12.18;6.63;;;2.40;99.90;;;;;;5031336;28;20569;-78
2022/01/19 08:42:56;;;;;;;11.68;6.65;;;2.40;99.90;;;;;;5042171;28;20023;-78
2022/01/19 08:45:22;;;;;;;13.45;6.78;;;2.40;99.90;;;;;;5033945;28;20049;-78
2022/01/19 08:47:48;;;;;;;13.57;7.20;;;2.40;99.90;;;;;;5030643;28;20029;-77
2022/01/19 08:50:16;;;;;;;15.88;7.10;;;2.40;99.90;;;;;;5029415;28;20030;-77
2022/01/19 08:52:43;;;;;;;16.20;9.13;;;2.50;99.90;;;;;;5036722;28;20037;-77
2022/01/19 08:55:09;;;;;;;13.57;7.53;;;2.40;99.90;;;;;;5034382;28;20022;-77
2022/01/19 08:57:35;;;;;;;13.70;7.45;;;2.50;99.90;;;;;;5029914;28;20038;-77
2022/01/19 09:00:02;;;;;;;15.50;8.10;;;2.50;99.90;;;;;;5030766;28;20463;-77
2022/01/19 09:02:28;;;;;;;15.32;8.18;;;2.50;99.90;;;;;;5030240;28;20544;-77
2022/01/19 09:04:54;;;;;;;16.05;7.60;;;2.60;99.90;;;;;;5029772;28;20030;-77
2022/01/19 09:07:20;;;;;;;12.88;7.55;;;2.50;99.90;;;;;;5029994;28;20422;-77
2022/01/19 09:09:46;;;;;;;16.40;8.43;;;2.50;99.90;;;;;;5030516;28;20079;-77
2022/01/19 09:12:12;;;;;;;18.27;8.43;;;2.60;99.90;;;;;;5030578;28;20037;-77
2022/01/19 09:14:37;;;;;;;16.38;8.70;;;2.60;99.90;;;;;;5024882;28;20021;-77
2022/01/19 09:17:07;;;;;;;16.85;9.48;;;2.70;99.90;;;;;;5030011;28;20025;-77
2022/01/19 09:19:35;;;;;;;17.05;9.75;;;2.70;99.90;;;;;;5030814;28;20104;-77
2022/01/19 09:22:03;;;;;;;21.20;9.90;;;2.80;99.90;;;;;;5031191;28;20022;-78
2022/01/19 09:24:29;;;;;;;18.40;9.60;;;2.90;99.90;;;;;;5029946;28;20336;-78
2022/01/19 09:26:56;;;;;;;13.02;8.30;;;3.00;99.90;;;;;;5030363;28;20030;-77
2022/01/19 09:29:22;;;;;;;16.40;9.18;;;3.50;99.90;;;;;;5030205;28;20324;-78
2022/01/19 09:31:48;;;;;;;19.10;9.90;;;4.10;99.90;;;;;;5029163;28;20474;-77
2022/01/19 09:34:20;;;;;;;18.48;9.68;;;6.00;99.90;;;;;;5032142;28;20021;-77
2022/01/19 09:36:46;;;;;;;17.77;10.55;;;5.40;99.90;;;;;;5029558;28;20345;-78
2022/01/19 09:39:26;;;;;;;19.15;10.95;;;4.70;99.90;;;;;;5029980;28;20116;-77
2022/01/19 09:41:53;;;;;;;17.95;10.65;;;4.80;99.90;;;;;;5030133;28;20034;-77
2022/01/19 09:44:21;;;;;;;19.35;11.40;;;4.60;99.90;;;;;;5028456;28;20219;-77
2022/01/19 09:46:48;;;;;;;24.10;13.35;;;4.40;99.90;;;;;;5029322;28;20046;-77
2022/01/19 09:49:15;;;;;;;23.63;12.98;;;4.20;99.90;;;;;;5030766;28;20021;-77
2022/01/19 09:51:42;;;;;;;28.13;14.45;;;4.30;99.90;;;;;;5028465;28;20026;-77
2022/01/19 09:54:12;;;;;;;25.02;12.57;;;4.40;99.90;;;;;;5032104;28;20017;-77
2022/01/19 09:56:38;;;;;;;25.20;13.20;;;4.60;99.90;;;;;;5029536;28;20029;-77
2022/01/19 09:59:04;;;;;;;28.05;12.73;;;4.60;99.90;;;;;;5029689;28;20036;-77
2022/01/19 10:01:30;;;;;;;22.67;12.65;;;4.80;99.90;;;;;;5033218;28;20028;-77
2022/01/19 10:03:56;;;;;;;30.05;13.60;;;4.90;99.90;;;;;;5029538;28;20060;-77
2022/01/19 10:06:23;;;;;;;23.83;12.75;;;4.70;99.90;;;;;;5028266;28;20025;-77
2022/01/19 10:08:54;;;;;;;25.55;13.15;;;5.00;99.90;;;;;;5029769;28;20013;-77
2022/01/19 10:17:01;;;;;;;26.27;13.32;;;5.30;99.90;;;;;;5018114;28;20040;-77
2022/01/19 10:19:29;;;;;;;;;;;5.80;99.90;;;;;;5013289;28;20050;-78
2022/01/19 10:22:12;;;;;;;26.33;13.90;;;5.80;99.90;;;;;;5014249;28;19905;-77
2022/01/19 10:24:47;;;;;;;28.35;14.45;;;5.60;99.90;;;;;;5011836;28;20092;-77
2022/01/19 10:27:31;;;;;;;21.95;13.07;;;5.40;99.90;;;;;;5010059;28;20543;-78
2022/01/19 10:30:02;;;;;;;25.95;14.40;;;5.50;99.90;;;;;;5015994;28;20607;-77
2022/01/19 10:32:42;;;;;;;22.70;12.32;;;5.50;99.90;;;;;;5016257;28;20036;-77
2022/01/19 10:35:21;;;;;;;24.58;13.05;;;5.50;99.90;;;;;;5014160;28;20256;-77
2022/01/19 10:38:06;;;;;;;20.08;11.75;;;5.50;99.90;;;;;;5020024;28;20050;-77
2022/01/19 10:40:33;;;;;;;23.83;12.63;;;5.70;99.90;;;;;;5019888;28;20037;-77
2022/01/19 10:42:59;;;;;;;23.90;11.88;;;5.70;99.90;;;;;;5012868;28;20073;-77
2022/01/19 10:45:31;;;;;;;21.05;12.25;;;5.70;99.90;;;;;;4997397;28;20049;-78
2022/01/19 10:47:57;;;;;;;19.38;12.02;;;5.60;99.90;;;;;;5010969;28;20041;-77
2022/01/19 10:50:31;;;;;;;23.77;12.32;;;5.60;99.90;;;;;;5010286;28;20553;-77
2022/01/19 10:53:01;;;;;;;31.05;16.08;;;5.70;99.90;;;;;;5018063;28;20025;-77
2022/01/19 10:55:27;;;;;;;31.75;18.27;;;5.80;99.90;;;;;;5029129;28;20026;-77
2022/01/19 10:57:53;;;;;;;26.80;17.60;;;5.80;99.90;;;;;;5029900;28;20561;-77
2022/01/19 11:00:23;;;;;;;29.67;18.10;;;5.80;99.90;;;;;;5030100;28;20032;-77
2022/01/19 11:02:52;;;;;;;30.38;18.13;;;5.80;99.90;;;;;;5028833;28;20173;-77
2022/01/19 11:05:39;;;;;;;28.33;16.10;;;5.80;99.90;;;;;;5026507;28;20555;-77
2022/01/19 11:08:05;;;;;;;27.27;15.88;;;5.70;99.90;;;;;;5024793;28;20052;-77
2022/01/19 11:10:31;;;;;;;21.58;13.32;;;5.80;99.90;;;;;;5024240;28;20503;-77
2022/01/19 11:12:58;;;;;;;28.10;14.18;;;5.70;99.90;;;;;;5029896;28;20045;-77
2022/01/19 11:15:24;;;;;;;22.88;13.43;;;5.80;99.90;;;;;;5028330;28;20028;-77
2022/01/19 11:17:50;;;;;;;23.98;13.40;;;5.90;99.90;;;;;;5028050;28;20021;-77
2022/01/19 11:20:20;;;;;;;22.42;13.35;;;6.00;99.90;;;;;;5028013;28;20025;-77
2022/01/19 11:23:33;;;;;;;22.27;12.77;;;6.10;99.90;;;;;;5028870;28;20060;-77
2022/01/19 11:26:09;;;;;;;21.83;13.13;;;6.30;99.90;;;;;;5025087;28;20087;-77
2022/01/19 11:28:42;;;;;;;19.25;11.82;;;6.80;99.90;;;;;;5025840;28;20030;-77
2022/01/19 11:31:14;;;;;;;18.88;11.55;;;6.90;99.90;;;;;;5030845;28;20033;-77
2022/01/19 11:33:41;;;;;;;21.63;11.55;;;6.90;99.90;;;;;;5027071;28;20033;-77
2022/01/19 11:36:20;;;;;;;16.98;10.38;;;6.90;99.90;;;;;;5026033;28;20040;-77
2022/01/19 11:38:50;;;;;;;17.98;10.38;;;6.80;99.90;;;;;;5007842;28;20422;-78
2022/01/19 11:41:15;;;;;;;22.40;11.63;;;6.70;99.90;;;;;;5025411;28;20049;-79
2022/01/19 11:43:54;;;;;;;19.92;11.13;;;6.70;99.90;;;;;;5009189;28;20125;-78
2022/01/19 11:46:39;;;;;;;19.75;11.10;;;6.60;99.90;;;;;;5026866;28;20049;-79
2022/01/19 11:49:10;;;;;;;21.98;11.40;;;6.60;99.90;;;;;;5023797;28;20049;-78
2022/01/19 11:51:42;;;;;;;17.90;10.43;;;6.70;99.90;;;;;;5026674;28;20029;-79
2022/01/19 11:54:35;;;;;;;17.75;11.00;;;6.80;99.90;;;;;;5025449;28;20038;-78
2022/01/19 11:57:02;;;;;;;16.23;9.50;;;6.80;99.90;;;;;;5024387;28;20092;-78
2022/01/19 11:59:46;;;;;;;18.05;10.10;;;6.90;99.90;;;;;;5024102;28;20049;-78
2022/01/19 12:02:21;;;;;;;16.45;9.00;;;7.00;99.90;;;;;;5028389;28;20041;-76
2022/01/19 12:05:10;;;;;;;14.30;9.05;;;7.10;99.90;;;;;;5027783;28;20030;-78
2022/01/19 12:07:52;;;;;;;14.77;8.15;;;7.00;99.90;;;;;;5045304;28;20041;-78
2022/01/19 12:10:31;;;;;;;16.35;9.07;;;6.90;99.90;;;;;;5032390;28;20537;-78
2022/01/19 12:13:25;;;;;;;17.25;7.68;;;7.00;99.90;;;;;;5043563;28;20067;-78
2022/01/19 12:15:56;;;;;;;16.60;8.20;;;7.00;99.90;;;;;;5045874;28;20036;-78
2022/01/19 12:18:40;;;;;;;;;;;7.00;99.90;;;;;;5044657;28;20075;-78
2022/01/19 12:21:07;;;;;;;12.25;7.10;;;7.10;99.90;;;;;;5043937;28;20375;-78
2022/01/19 12:23:35;;;;;;;13.38;6.93;;;7.10;99.90;;;;;;5042462;28;20025;-78
2022/01/19 12:26:02;;;;;;;9.65;6.13;;;7.10;99.90;;;;;;5052011;28;20047;-78
2022/01/19 12:28:50;;;;;;;9.35;6.03;;;7.20;99.90;;;;;;5032511;28;20143;-78
2022/01/19 12:31:36;;;;;;;10.38;6.60;;;7.20;99.90;;;;;;5031306;28;20090;-78
2022/01/19 12:34:10;;;;;;;12.73;6.25;;;7.30;99.90;;;;;;5045809;28;20025;-78
2022/01/19 12:37:09;;;;;;;10.15;5.90;;;7.20;99.90;;;;;;5044129;28;20549;-78
2022/01/19 12:39:41;;;;;;;13.13;7.40;;;7.30;99.90;;;;;;4977722;28;20046;-78
2022/01/19 12:42:21;;;;;;;11.98;8.20;;;7.40;99.90;;;;;;4960289;28;20042;-78
2022/01/19 12:44:47;;;;;;;10.17;7.60;;;7.40;99.90;;;;;;4968615;28;23326;-78
2022/01/19 12:47:28;;;;;;;11.52;7.68;;;7.40;99.90;;;;;;4966813;28;20814;-78
2022/01/19 12:49:57;;;;;;;11.60;7.45;;;7.50;99.90;;;;;;4961169;28;20132;-78
2022/01/19 12:52:26;;;;;;;10.38;6.18;;;7.50;99.90;;;;;;4985208;28;20042;-78
2022/01/19 12:54:54;;;;;;;9.60;5.88;;;7.50;99.90;;;;;;4965023;28;20034;-78
2022/01/19 12:57:19;;;;;;;7.55;5.10;;;7.40;99.90;;;;;;4961394;28;20027;-78
2022/01/19 12:59:48;;;;;;;7.40;6.13;;;7.40;99.90;;;;;;4978382;28;20085;-78
2022/01/19 13:02:16;;;;;;;9.55;5.68;;;7.30;99.90;;;;;;4967566;28;20046;-78
2022/01/19 13:04:47;;;;;;;11.48;5.50;;;7.30;99.90;;;;;;4969848;28;20031;-78
2022/01/19 13:07:19;;;;;;;;;;;7.20;99.90;;;;;;4977993;28;20035;-78
2022/01/19 13:10:04;;;;;;;9.18;4.93;;;7.10;99.90;;;;;;4985825;28;19985;-78
2022/01/19 13:12:37;;;;;;;8.90;5.35;;;7.20;99.90;;;;;;4968871;28;20285;-78
2022/01/19 13:15:04;;;;;;;7.78;4.72;;;7.20;99.90;;;;;;4985645;28;20056;-78
2022/01/19 13:17:44;;;;;;;8.52;4.35;;;7.20;99.90;;;;;;5029223;28;20075;-78
2022/01/19 13:20:16;;;;;;;8.20;4.63;;;7.10;99.90;;;;;;5030332;28;20067;-78
2022/01/19 13:22:48;;;;;;;8.38;4.78;;;7.10;99.90;;;;;;5030771;28;20022;-78
2022/01/19 13:25:25;;;;;;;6.88;4.28;;;7.10;99.90;;;;;;5032583;28;20079;-78
2022/01/19 13:27:55;;;;;;;7.25;4.80;;;7.10;99.90;;;;;;5032234;28;20025;-78
2022/01/19 13:30:24;;;;;;;7.97;4.75;;;7.10;99.90;;;;;;5034550;28;20033;-78
2022/01/19 13:32:50;;;;;;;6.38;4.28;;;7.10;99.90;;;;;;5033727;28;20572;-78
2022/01/19 13:35:17;;;;;;;6.75;4.18;;;7.10;99.90;;;;;;5030466;28;20124;-78
2022/01/19 13:37:58;;;;;;;7.32;4.57;;;7.20;99.90;;;;;;5030138;28;20028;-76
2022/01/19 13:40:31;;;;;;;7.20;4.40;;;7.20;99.90;;;;;;5032696;28;20030;-78
2022/01/19 13:43:11;;;;;;;7.32;5.07;;;7.20;99.90;;;;;;5032049;28;20164;-78
2022/01/19 13:48:28;;;;;;;11.30;7.13;;;7.10;99.90;;;;;;5025045;28;20407;-78
2022/01/19 13:51:14;;;;;;;12.07;7.60;;;7.10;99.90;;;;;;5033549;28;20048;-78
2022/01/19 13:53:53;;;;;;;15.13;9.25;;;7.10;99.90;;;;;;5029963;28;20016;-78
2022/01/19 13:56:28;;;;;;;17.52;10.25;;;7.00;99.90;;;;;;5018755;28;20109;-78
2022/01/19 13:59:02;;;;;;;13.40;8.35;;;7.00;99.90;;;;;;5030548;28;20027;-78
2022/01/19 14:01:39;;;;;;;18.40;10.23;;;7.00;99.90;;;;;;5031531;28;20025;-78
2022/01/19 14:04:07;;;;;;;27.23;14.57;;;6.90;99.90;;;;;;5031901;28;20025;-78
2022/01/19 14:06:42;;;;;;;25.05;13.05;;;6.90;99.90;;;;;;5028620;28;20033;-78
2022/01/19 14:09:10;;;;;;;23.65;12.25;;;6.90;99.90;;;;;;5034845;28;20112;-78
2022/01/19 14:11:37;;;;;;;18.75;11.32;;;6.90;99.90;;;;;;5030096;28;20047;-78
2022/01/19 14:14:26;;;;;;;16.30;10.93;;;6.90;99.90;;;;;;5028241;28;20116;-78
2022/01/19 14:16:55;;;;;;;17.60;10.65;;;6.80;99.90;;;;;;5029255;28;20064;-78
2022/01/19 14:19:23;;;;;;;14.95;9.73;;;6.80;99.90;;;;;;5031249;28;20033;-78
2022/01/19 14:22:05;;;;;;;16.83;9.82;;;6.80;99.90;;;;;;5028442;28;20474;-78
2022/01/19 14:24:46;;;;;;;15.07;9.88;;;6.70;99.90;;;;;;5026401;28;20594;-78
2022/01/19 14:27:22;;;;;;;19.52;10.55;;;6.80;99.90;;;;;;5023800;28;20491;-78
2022/01/19 14:30:14;;;;;;;15.07;9.82;;;6.80;99.90;;;;;;5033592;28;20029;-78
2022/01/19 14:33:09;;;;;;;16.27;9.10;;;6.70;99.90;;;;;;5046342;28;20033;-78